Time;durP1;ratioP1;P1;durP2;ratioP2;P2;SDS_P1;SDS_P2;PMS_P1;PMS_P2;Temp;Humidity;BMP_temperature;BMP_pressure;BME280_temperature;BME280_humidity;BME280_pressure;Samples;Min_cycle;Max_cycle;Signal;HPM_P1;HPM_P2
2023/09/09 00:04:16;;;;;;;15.83;13.50;;;20.00;99.90;;;;;;5024607;28;20464;-80
2023/09/09 00:07:19;;;;;;;14.03;12.70;;;19.90;99.90;;;;;;5022920;28;20538;-80
2023/09/09 00:10:28;;;;;;;15.90;14.23;;;20.00;99.90;;;;;;5025783;28;20482;-80
2023/09/09 00:16:23;;;;;;;15.80;14.40;;;20.00;99.90;;;;;;5020557;28;20796;-80
2023/09/09 00:19:04;;;;;;;15.40;14.10;;;19.80;99.90;;;;;;5022073;28;20459;-80
2023/09/09 00:21:57;;;;;;;14.70;13.50;;;19.80;99.90;;;;;;5022461;28;20427;-79
2023/09/09 00:24:44;;;;;;;15.13;13.83;;;19.70;99.90;;;;;;5023430;28;20983;-79
2023/09/09 00:30:51;;;;;;;15.57;14.20;;;19.70;99.90;;;;;;5012642;28;20432;-80
2023/09/09 00:33:31;;;;;;;15.47;14.07;;;19.70;99.90;;;;;;4987328;28;20443;-80
2023/09/09 00:36:26;;;;;;;15.27;13.73;;;19.60;99.90;;;;;;5022339;28;20505;-79
2023/09/09 00:42:27;;;;;;;14.83;13.53;;;19.60;99.90;;;;;;4962380;29;20446;-79
2023/09/09 00:45:02;;;;;;;14.70;13.40;;;19.60;99.90;;;;;;5022746;28;20475;-79
2023/09/09 00:48:01;;;;;;;15.10;13.73;;;19.50;99.90;;;;;;5023247;28;20501;-80
2023/09/09 00:50:58;;;;;;;14.93;13.63;;;19.50;99.90;;;;;;5022922;28;20444;-80
2023/09/09 00:54:03;;;;;;;14.40;13.20;;;19.40;99.90;;;;;;5027013;28;20502;-80
2023/09/09 00:59:42;;;;;;;16.20;14.73;;;19.40;99.90;;;;;;5012693;28;20447;-81
2023/09/09 01:02:19;;;;;;;16.97;15.47;;;19.30;99.90;;;;;;5026227;28;20458;-81
2023/09/09 01:05:07;;;;;;;15.83;14.43;;;19.30;99.90;;;;;;5026502;28;20542;-80
2023/09/09 01:08:09;;;;;;;15.63;14.43;;;19.30;99.90;;;;;;5028733;28;20435;-80
2023/09/09 01:11:32;;;;;;;16.47;15.17;;;19.20;99.90;;;;;;5029795;28;20443;-80
2023/09/09 01:14:16;;;;;;;15.07;13.60;;;19.20;99.90;;;;;;4976413;28;20507;-79
2023/09/09 01:17:22;;;;;;;15.50;14.20;;;19.20;99.90;;;;;;5031096;28;20435;-80
2023/09/09 01:19:58;;;;;;;16.00;14.50;;;18.80;99.90;;;;;;5020865;28;20539;-80
2023/09/09 01:22:48;;;;;;;16.47;15.03;;;19.20;99.90;;;;;;5020698;28;20455;-81
2023/09/09 01:25:43;;;;;;;;;;;;;;;;;;;;;
2023/09/09 01:28:27;;;;;;;16.20;14.70;;;19.10;99.90;;;;;;5024018;28;20452;-80
2023/09/09 01:31:01;;;;;;;15.90;14.60;;;19.10;99.90;;;;;;5024147;28;20461;-80
2023/09/09 01:33:56;;;;;;;16.90;15.47;;;19.10;99.90;;;;;;5027305;28;20478;-80
2023/09/09 01:36:50;;;;;;;16.00;14.70;;;19.10;99.90;;;;;;5026954;28;20454;-79
2023/09/09 01:39:40;;;;;;;17.50;16.00;;;19.00;99.90;;;;;;5027171;28;20521;-79
2023/09/09 01:42:13;;;;;;;16.93;15.53;;;18.90;99.90;;;;;;5026961;28;20447;-80
2023/09/09 01:44:56;;;;;;;17.27;15.87;;;18.50;99.90;;;;;;5025446;28;20598;-81
2023/09/09 01:47:51;;;;;;;15.90;14.53;;;18.90;99.90;;;;;;5026390;28;20420;-80
2023/09/09 01:53:18;;;;;;;17.80;16.20;;;18.80;99.90;;;;;;5022874;28;21035;-79
2023/09/09 01:55:58;;;;;;;;;;;;;;;;;;;;;
2023/09/09 01:59:07;;;;;;;19.00;17.40;;;18.80;99.90;;;;;;5023839;28;20530;-80
2023/09/09 02:01:50;;;;;;;18.30;16.90;;;18.80;99.90;;;;;;5008488;28;20490;-79
2023/09/09 02:04:34;;;;;;;19.10;17.50;;;18.80;99.90;;;;;;5026015;28;20562;-79
2023/09/09 02:07:14;;;;;;;18.80;17.30;;;18.70;99.90;;;;;;5026245;28;20992;-80
2023/09/09 02:09:59;;;;;;;17.03;15.73;;;18.70;99.90;;;;;;5025902;28;20455;-79
2023/09/09 02:12:35;;;;;;;18.80;16.60;;;18.60;99.90;;;;;;5026208;28;20471;-81
2023/09/09 02:15:17;;;;;;;18.20;16.50;;;18.60;99.90;;;;;;5025930;28;20491;-80
2023/09/09 02:17:59;;;;;;;16.47;15.13;;;18.60;99.90;;;;;;5025494;28;20442;-80
2023/09/09 02:20:34;;;;;;;18.67;16.77;;;18.60;99.90;;;;;;5026842;28;20490;-78
2023/09/09 02:23:19;;;;;;;18.30;16.60;;;18.60;99.90;;;;;;5026035;28;20454;-79
2023/09/09 02:26:05;;;;;;;18.67;17.07;;;18.60;99.90;;;;;;5026458;28;20458;-81
2023/09/09 02:28:49;;;;;;;17.43;15.93;;;18.50;99.90;;;;;;5025260;28;20510;-80
2023/09/09 02:31:32;;;;;;;17.87;16.30;;;18.50;99.90;;;;;;5021431;28;20463;-80
2023/09/09 02:34:14;;;;;;;17.67;16.10;;;18.50;99.90;;;;;;5019415;28;20471;-80
2023/09/09 02:37:06;;;;;;;18.50;16.63;;;18.40;99.90;;;;;;5020360;28;20670;-81
2023/09/09 02:39:58;;;;;;;17.60;16.20;;;18.40;99.90;;;;;;5006663;28;20498;-80
2023/09/09 02:42:38;;;;;;;17.50;15.90;;;18.40;99.90;;;;;;5020968;28;20457;-80
2023/09/09 02:45:29;;;;;;;17.83;16.23;;;18.40;99.90;;;;;;5019260;28;20467;-79
2023/09/09 02:48:07;;;;;;;19.10;17.50;;;18.40;99.90;;;;;;5020649;28;20459;-81
2023/09/09 02:50:44;;;;;;;16.97;15.67;;;18.30;99.90;;;;;;5021841;28;20450;-79
2023/09/09 02:53:18;;;;;;;18.90;17.13;;;18.30;99.90;;;;;;5021162;28;20435;-80
2023/09/09 02:55:50;;;;;;;18.03;16.53;;;18.30;99.90;;;;;;5019559;28;20451;-79
2023/09/09 02:58:44;;;;;;;17.93;16.43;;;18.20;99.90;;;;;;5019509;28;20543;-80
2023/09/09 03:01:26;;;;;;;18.47;16.67;;;18.20;99.90;;;;;;5019913;28;20498;-79
2023/09/09 03:04:06;;;;;;;17.37;16.03;;;18.20;99.90;;;;;;5020646;28;20534;-79
2023/09/09 03:07:04;;;;;;;18.93;17.33;;;18.20;99.90;;;;;;5022181;28;20514;-80
2023/09/09 03:10:06;;;;;;;17.80;16.20;;;18.20;99.90;;;;;;5019996;28;20479;-80
2023/09/09 03:13:02;;;;;;;17.93;16.40;;;18.20;99.90;;;;;;5021256;28;20843;-80
2023/09/09 03:15:50;;;;;;;18.17;16.50;;;18.20;99.90;;;;;;5020103;28;20467;-80
2023/09/09 03:18:46;;;;;;;17.47;16.00;;;18.10;99.90;;;;;;5019372;28;20768;-79
2023/09/09 03:21:28;;;;;;;17.23;15.73;;;18.10;99.90;;;;;;5020338;28;20478;-81
2023/09/09 03:24:27;;;;;;;19.30;17.60;;;18.20;99.90;;;;;;5019797;28;20972;-79
2023/09/09 03:30:00;;;;;;;18.60;16.93;;;18.00;99.90;;;;;;5015284;28;20436;-80
2023/09/09 03:33:02;;;;;;;17.80;16.30;;;18.00;99.90;;;;;;5019275;28;21025;-79
2023/09/09 03:35:51;;;;;;;17.50;16.03;;;18.10;99.90;;;;;;5019092;28;20514;-80
2023/09/09 03:38:43;;;;;;;18.77;17.17;;;18.10;99.90;;;;;;5023765;28;20463;-79
2023/09/09 03:41:44;;;;;;;20.03;18.13;;;18.00;99.90;;;;;;5025871;28;20502;-79
2023/09/09 03:44:25;;;;;;;17.70;16.17;;;18.00;99.90;;;;;;5021424;28;20475;-79
2023/09/09 03:47:19;;;;;;;19.13;17.27;;;18.00;99.90;;;;;;5022125;28;20462;-79
2023/09/09 03:50:14;;;;;;;18.77;17.07;;;17.90;99.90;;;;;;5020030;28;20455;-80
2023/09/09 03:56:11;;;;;;;21.53;16.77;;;17.90;99.90;;;;;;5018874;28;20447;-80
2023/09/09 03:59:08;;;;;;;19.87;18.00;;;17.80;99.90;;;;;;5022680;28;20444;-80
2023/09/09 04:01:50;;;;;;;18.40;16.80;;;17.80;99.90;;;;;;5019785;28;20510;-79
2023/09/09 04:04:22;;;;;;;19.67;17.77;;;17.80;99.90;;;;;;5003635;28;20472;-80
2023/09/09 04:06:58;;;;;;;19.90;18.13;;;17.80;99.90;;;;;;5002866;28;20829;-79
2023/09/09 04:09:40;;;;;;;20.20;18.50;;;17.80;99.90;;;;;;5000508;28;20834;-80
2023/09/09 04:12:27;;;;;;;17.60;16.20;;;17.80;99.90;;;;;;5000994;28;20760;-79
2023/09/09 04:17:57;;;;;;;19.43;17.90;;;17.70;99.90;;;;;;4997412;28;20491;-80
2023/09/09 04:20:53;;;;;;;21.17;19.37;;;17.70;99.90;;;;;;5000639;28;20512;-80
2023/09/09 04:30:09;;;;;;;;;;;;;;;;;;;;;
2023/09/09 04:39:40;;;;;;;20.67;18.90;;;17.60;99.90;;;;;;4990505;28;20996;-80
2023/09/09 04:42:33;;;;;;;20.43;18.73;;;17.60;99.90;;;;;;5012700;28;20563;-80
2023/09/09 04:45:51;;;;;;;20.30;18.30;;;17.60;99.90;;;;;;5000195;28;20502;-81
2023/09/09 04:48:50;;;;;;;19.67;18.07;;;17.60;99.90;;;;;;4978736;28;20548;-80
2023/09/09 04:51:35;;;;;;;20.07;18.30;;;17.60;99.90;;;;;;5001637;28;20453;-81
2023/09/09 04:54:37;;;;;;;19.13;17.43;;;17.60;99.90;;;;;;5003435;28;20480;-79
2023/09/09 04:57:51;;;;;;;20.33;18.40;;;17.60;99.90;;;;;;5005676;28;20491;-79
2023/09/09 05:00:47;;;;;;;18.77;17.20;;;17.50;99.90;;;;;;5006371;28;20452;-80
2023/09/09 05:04:02;;;;;;;;;;;;;;;;;;;;;
2023/09/09 05:07:07;;;;;;;20.00;18.40;;;17.50;99.90;;;;;;5011342;28;20435;-79
2023/09/09 05:09:49;;;;;;;20.03;18.20;;;17.50;99.90;;;;;;5012227;28;20512;-78
2023/09/09 05:12:24;;;;;;;20.17;18.57;;;17.50;99.90;;;;;;5015504;28;20464;-78
2023/09/09 05:15:13;;;;;;;20.80;19.07;;;17.50;99.90;;;;;;5013497;28;20562;-80
2023/09/09 05:18:09;;;;;;;20.90;19.10;;;17.50;99.90;;;;;;5012306;28;20951;-79
2023/09/09 05:21:01;;;;;;;21.17;19.27;;;17.30;99.90;;;;;;5010251;28;20448;-81
2023/09/09 05:23:49;;;;;;;20.63;18.93;;;17.50;99.90;;;;;;4890148;29;20469;-79
2023/09/09 05:26:39;;;;;;;;;;;;;;;;;;;;;
2023/09/09 05:32:50;;;;;;;20.27;18.57;;;17.60;99.90;;;;;;4947746;29;20618;-81
2023/09/09 05:35:26;;;;;;;19.67;17.93;;;17.60;99.90;;;;;;4947707;29;20471;-79
2023/09/09 05:38:01;;;;;;;18.73;17.23;;;17.60;99.90;;;;;;4999158;28;20444;-78
2023/09/09 05:40:43;;;;;;;19.17;17.33;;;17.70;99.90;;;;;;5009147;28;21035;-80
2023/09/09 05:43:27;;;;;;;18.37;16.60;;;17.70;99.90;;;;;;5009063;28;20564;-81
2023/09/09 06:09:49;;;;;;;19.40;17.70;;;17.90;99.90;;;;;;5218636;22;25782592;-79
2023/09/09 06:12:27;;;;;;;18.90;17.17;;;18.60;99.90;;;;;;6328035;22;20243;-80
2023/09/09 06:15:08;;;;;;;19.70;17.90;;;18.70;99.90;;;;;;6318950;22;20524;-80
2023/09/09 06:20:59;;;;;;;18.93;17.33;;;18.80;99.90;;;;;;6301627;22;20407;-81
2023/09/09 06:24:03;;;;;;;19.97;18.17;;;18.80;99.90;;;;;;6324528;22;20426;-80
2023/09/09 06:33:16;;;;;;;17.60;16.10;;;19.10;99.90;;;;;;6274018;22;20433;-82
2023/09/09 06:35:57;;;;;;;19.40;17.57;;;19.20;99.90;;;;;;6330018;22;20383;-78
2023/09/09 06:38:43;;;;;;;18.43;16.63;;;19.30;99.90;;;;;;6330013;22;20462;-80
2023/09/09 06:41:21;;;;;;;18.33;16.73;;;19.30;99.90;;;;;;6323141;22;20416;-79
2023/09/09 06:44:03;;;;;;;18.57;16.93;;;19.40;99.90;;;;;;6294952;22;20454;-79
2023/09/09 06:46:45;;;;;;;18.40;16.80;;;19.40;99.90;;;;;;6322707;22;20490;-80
2023/09/09 06:49:22;;;;;;;18.40;16.90;;;19.60;99.90;;;;;;6323165;22;20432;-80
2023/09/09 06:51:53;;;;;;;18.83;17.13;;;19.60;99.90;;;;;;6328500;22;20469;-79
2023/09/09 06:54:33;;;;;;;18.90;17.00;;;19.60;99.90;;;;;;6325270;22;20434;-79
2023/09/09 06:57:05;;;;;;;18.23;16.73;;;19.70;99.90;;;;;;6318189;22;20434;-79
2023/09/09 06:59:36;;;;;;;16.80;15.40;;;19.80;99.90;;;;;;6321765;22;20417;-80
2023/09/09 07:02:09;;;;;;;19.67;18.07;;;19.80;99.90;;;;;;6328825;22;20470;-80
2023/09/09 07:04:47;;;;;;;29.20;26.40;;;19.90;99.90;;;;;;6325177;22;20453;-79
2023/09/09 07:07:22;;;;;;;18.07;16.37;;;20.00;99.90;;;;;;6321210;22;20409;-81
2023/09/09 07:10:07;;;;;;;17.70;16.13;;;20.00;99.90;;;;;;6312753;22;20407;-79
2023/09/09 07:12:49;;;;;;;18.10;16.30;;;20.10;99.90;;;;;;6314467;22;20411;-82
2023/09/09 07:15:37;;;;;;;17.07;15.60;;;20.20;99.90;;;;;;6315398;22;20518;-79
2023/09/09 07:18:13;;;;;;;17.40;15.90;;;20.30;99.90;;;;;;6315321;22;20491;-80
2023/09/09 07:20:46;;;;;;;26.73;24.33;;;20.30;99.90;;;;;;6316313;22;20426;-80
2023/09/09 07:23:18;;;;;;;17.33;15.73;;;20.50;99.90;;;;;;6314425;22;20725;-81
2023/09/09 07:26:03;;;;;;;18.10;16.33;;;20.60;99.90;;;;;;6313052;22;20408;-80
2023/09/09 07:28:46;;;;;;;16.80;15.30;;;20.60;99.90;;;;;;6312634;22;20403;-79
2023/09/09 07:31:17;;;;;;;16.83;15.33;;;20.80;99.90;;;;;;6306806;22;20546;-79
2023/09/09 07:33:52;;;;;;;17.20;15.90;;;20.90;99.90;;;;;;6309903;22;20412;-78
2023/09/09 07:36:43;;;;;;;16.67;14.60;;;21.00;99.90;;;;;;6310649;22;20493;-78
2023/09/09 07:46:08;;;;;;;15.60;14.50;;;21.60;99.90;;;;;;6308329;22;20414;-80
2023/09/09 07:48:45;;;;;;;15.43;14.30;;;21.80;99.90;;;;;;6318087;22;20434;-82
2023/09/09 07:51:26;;;;;;;16.77;15.10;;;22.00;99.90;;;;;;6317981;22;20482;-81
2023/09/09 07:54:04;;;;;;;16.30;15.00;;;22.00;99.90;;;;;;6317401;22;20453;-80
2023/09/09 07:56:36;;;;;;;16.00;14.60;;;22.20;99.90;;;;;;6316424;22;20641;-83
2023/09/09 07:59:14;;;;;;;16.20;14.80;;;22.30;99.90;;;;;;6314481;22;20502;-79
2023/09/09 08:02:12;;;;;;;16.90;15.40;;;22.40;99.90;;;;;;6313641;22;20416;-79
2023/09/09 08:05:06;;;;;;;15.90;14.50;;;22.60;99.90;;;;;;6311595;22;20476;-79
2023/09/09 08:07:44;;;;;;;13.90;12.70;;;22.90;99.90;;;;;;6315555;22;20438;-78
2023/09/09 08:10:23;;;;;;;16.03;14.70;;;23.20;99.90;;;;;;6316040;22;20712;-78
2023/09/09 08:13:08;;;;;;;15.33;13.83;;;23.20;99.90;;;;;;6317337;22;20413;-78
2023/09/09 08:16:03;;;;;;;14.80;13.50;;;23.40;99.90;;;;;;6316773;22;20521;-79
2023/09/09 08:18:46;;;;;;;14.30;13.13;;;23.50;99.90;;;;;;6312710;22;20514;-80
2023/09/09 08:21:27;;;;;;;14.90;13.50;;;23.90;99.90;;;;;;6313519;22;20414;-80
2023/09/09 08:24:22;;;;;;;14.20;13.10;;;24.00;99.90;;;;;;6313540;22;20451;-79
2023/09/09 08:27:31;;;;;;;14.93;13.30;;;24.20;99.90;;;;;;6314651;22;20411;-82
2023/09/09 08:30:13;;;;;;;14.30;13.13;;;24.50;99.90;;;;;;6287401;22;20461;-79
2023/09/09 08:36:35;;;;;;;13.67;12.63;;;25.00;99.90;;;;;;6289544;22;20387;-80
2023/09/09 08:39:34;;;;;;;12.67;11.73;;;25.20;99.90;;;;;;6314852;22;20435;-80
2023/09/09 08:42:17;;;;;;;13.70;12.57;;;25.50;99.90;;;;;;6315620;22;20442;-79
2023/09/09 08:49:09;;;;;;;18.93;17.43;;;25.80;99.90;;;;;;6188749;23;20482;-80
2023/09/09 08:51:51;;;;;;;15.60;14.40;;;26.00;99.90;;;;;;6185996;23;20510;-83
2023/09/09 08:54:33;;;;;;;13.93;12.77;;;26.40;99.90;;;;;;6247734;22;20471;-79
2023/09/09 08:57:19;;;;;;;13.77;12.47;;;26.70;99.90;;;;;;6248591;23;20366;-81
2023/09/09 09:02:56;;;;;;;11.97;11.07;;;26.90;99.90;;;;;;6165434;23;20404;-81
2023/09/09 09:05:38;;;;;;;13.00;12.00;;;27.10;99.90;;;;;;6162806;23;20432;-81
2023/09/09 09:08:32;;;;;;;12.37;11.47;;;27.20;99.90;;;;;;6162114;23;20418;-82
2023/09/09 09:11:09;;;;;;;12.37;11.30;;;27.50;99.90;;;;;;6161096;23;20492;-81
2023/09/09 09:16:48;;;;;;;12.03;11.03;;;27.90;99.90;;;;;;6169054;23;20404;-83
2023/09/09 09:19:39;;;;;;;11.40;10.60;;;27.70;99.90;;;;;;6161279;23;20531;-81
2023/09/09 09:22:19;;;;;;;13.00;11.90;;;28.10;99.90;;;;;;6163042;23;20401;-80
2023/09/09 09:25:13;;;;;;;11.60;10.50;;;28.40;99.90;;;;;;6159098;23;20463;-81
2023/09/09 09:27:57;;;;;;;12.07;11.17;;;28.50;99.90;;;;;;6159664;23;20412;-80
2023/09/09 09:30:34;;;;;;;12.23;11.23;;;28.40;99.90;;;;;;6156325;23;20423;-82
2023/09/09 09:33:33;;;;;;;11.90;10.90;;;28.70;99.90;;;;;;6157273;23;20502;-79
2023/09/09 09:39:20;;;;;;;11.77;10.93;;;29.60;99.90;;;;;;6138297;23;20531;-81
2023/09/09 09:42:25;;;;;;;11.60;10.70;;;29.50;99.90;;;;;;6156643;23;20393;-81
2023/09/09 09:48:30;;;;;;;11.77;10.60;;;29.80;99.90;;;;;;6186811;23;20919;-78
2023/09/09 09:54:14;;;;;;;11.47;10.47;;;30.30;99.90;;;;;;6186571;23;20952;-79
2023/09/09 09:56:49;;;;;;;10.57;9.77;;;30.60;99.90;;;;;;6187547;23;20462;-80
2023/09/09 09:59:39;;;;;;;10.83;10.13;;;30.90;99.90;;;;;;6187904;23;20469;-81
2023/09/09 10:02:26;;;;;;;10.57;9.70;;;31.10;99.90;;;;;;6190123;23;20392;-81
2023/09/09 10:05:06;;;;;;;11.57;10.57;;;30.90;99.90;;;;;;6188937;23;20971;-79
2023/09/09 10:08:03;;;;;;;10.43;9.53;;;30.90;99.90;;;;;;6188699;23;20427;-79
2023/09/09 10:11:10;;;;;;;10.57;9.67;;;31.00;99.90;;;;;;6187260;23;20422;-80
2023/09/09 10:14:05;;;;;;;10.60;9.80;;;31.20;99.90;;;;;;6187565;23;20536;-80
2023/09/09 10:16:59;;;;;;;10.97;10.00;;;31.80;99.90;;;;;;6188185;23;20424;-80
2023/09/09 10:22:32;;;;;;;;;;;;;;;;;;;;;
2023/09/09 10:25:22;;;;;;;11.23;10.43;;;31.80;99.90;;;;;;6189480;23;20411;-80
2023/09/09 10:28:23;;;;;;;11.80;11.00;;;31.70;99.90;;;;;;6163122;22;20495;-80
2023/09/09 10:33:57;;;;;;;10.57;9.73;;;31.30;99.90;;;;;;6188325;23;20432;-81
2023/09/09 10:36:34;;;;;;;9.27;8.67;;;31.70;99.90;;;;;;6190280;23;21076;-80
2023/09/09 10:39:02;;;;;;;10.03;9.33;;;31.70;99.90;;;;;;6190612;23;20427;-82
2023/09/09 10:41:38;;;;;;;8.50;7.83;;;32.40;99.90;;;;;;6190041;23;20475;-81
2023/09/09 10:44:26;;;;;;;9.43;8.70;;;32.80;99.90;;;;;;6190236;23;20431;-81
2023/09/09 10:47:19;;;;;;;8.50;7.90;;;32.80;99.90;;;;;;6186484;23;20395;-81
2023/09/09 10:53:32;;;;;;;8.00;7.40;;;32.90;99.90;;;;;;6186354;23;20395;-81
2023/09/09 10:56:39;;;;;;;7.70;7.10;;;33.00;99.90;;;;;;6181025;23;20414;-81
2023/09/09 10:59:30;;;;;;;10.50;8.20;;;33.50;99.90;;;;;;6162868;23;20460;-82
2023/09/09 11:02:27;;;;;;;8.30;7.50;;;33.70;99.90;;;;;;6186913;23;20411;-81
2023/09/09 11:05:26;;;;;;;8.33;7.60;;;33.70;99.90;;;;;;6178870;23;20428;-83
2023/09/09 11:08:30;;;;;;;8.57;7.70;;;33.80;99.90;;;;;;6189000;22;20490;-79
2023/09/09 11:11:23;;;;;;;8.73;6.37;;;34.20;99.90;;;;;;6190410;23;20412;-81
2023/09/09 11:14:04;;;;;;;9.20;7.43;;;34.30;99.90;;;;;;6188719;23;20427;-80
2023/09/09 11:17:10;;;;;;;7.23;6.73;;;33.50;99.90;;;;;;6198450;23;20411;-81
2023/09/09 11:19:59;;;;;;;7.23;6.53;;;33.00;99.90;;;;;;6197252;23;20438;-84
2023/09/09 11:22:52;;;;;;;7.93;7.43;;;34.30;99.90;;;;;;6194493;23;20419;-80
2023/09/09 11:28:17;;;;;;;8.87;6.70;;;34.70;99.90;;;;;;6176484;22;20415;-81
2023/09/09 11:30:50;;;;;;;7.00;6.50;;;33.70;99.90;;;;;;6188045;23;20368;-81
2023/09/09 11:33:47;;;;;;;6.90;6.20;;;33.70;99.90;;;;;;6194120;23;20395;-79
2023/09/09 11:42:33;;;;;;;7.40;6.70;;;34.30;97.70;;;;;;6195846;23;20462;-80
2023/09/09 11:45:35;;;;;;;6.87;6.37;;;34.90;96.50;;;;;;6195130;23;20485;-81
2023/09/09 11:48:29;;;;;;;12.77;6.50;;;34.90;95.70;;;;;;6192443;23;20436;-81
2023/09/09 11:51:24;;;;;;;7.27;6.53;;;34.80;95.50;;;;;;6188103;23;20434;-80
2023/09/09 11:54:26;;;;;;;7.00;5.77;;;35.30;94.50;;;;;;6189935;23;20486;-80
2023/09/09 11:57:29;;;;;;;6.93;5.60;;;34.90;94.70;;;;;;6187824;23;20749;-80
2023/09/09 12:03:21;;;;;;;6.87;5.80;;;35.50;93.70;;;;;;6187186;23;20407;-81
2023/09/09 12:06:19;;;;;;;11.80;6.53;;;35.70;92.70;;;;;;6194765;23;20778;-81
2023/09/09 12:09:07;;;;;;;8.97;6.40;;;35.60;92.80;;;;;;6194968;23;20387;-81
2023/09/09 12:12:20;;;;;;;7.50;6.20;;;35.70;92.70;;;;;;6196891;23;20391;-80
2023/09/09 12:18:11;;;;;;;7.10;6.40;;;35.80;91.10;;;;;;6170843;23;20681;-81
2023/09/09 12:24:06;;;;;;;7.37;6.13;;;35.10;92.00;;;;;;6190544;23;20411;-81
2023/09/09 12:26:57;;;;;;;6.57;5.83;;;34.80;92.30;;;;;;6188123;23;21081;-81
2023/09/09 12:30:00;;;;;;;9.13;5.90;;;34.90;92.40;;;;;;6186152;23;20932;-81
2023/09/09 12:32:57;;;;;;;7.10;5.57;;;35.60;91.10;;;;;;6166026;22;20419;-81
2023/09/09 12:38:44;;;;;;;6.23;5.67;;;36.00;90.50;;;;;;6158285;22;20439;-81
2023/09/09 12:41:38;;;;;;;7.07;5.53;;;36.00;90.40;;;;;;6158015;23;20814;-80
2023/09/09 12:44:25;;;;;;;7.70;5.87;;;35.70;90.80;;;;;;6154638;23;20436;-81
2023/09/09 12:47:00;;;;;;;7.57;6.27;;;34.80;91.30;;;;;;6154931;23;20463;-81
2023/09/09 12:49:48;;;;;;;7.57;6.07;;;35.10;91.00;;;;;;6129971;23;20492;-81
2023/09/09 12:52:29;;;;;;;7.60;5.73;;;35.10;90.90;;;;;;6154714;23;20385;-80
2023/09/09 12:55:05;;;;;;;6.80;6.20;;;34.30;91.50;;;;;;6153612;23;20817;-81
2023/09/09 12:57:33;;;;;;;6.67;5.30;;;34.80;91.20;;;;;;6153292;23;20438;-81
2023/09/09 13:00:45;;;;;;;9.90;6.30;;;35.20;91.00;;;;;;6159015;23;20862;-81
2023/09/09 13:03:59;;;;;;;5.90;5.40;;;33.70;91.60;;;;;;6159034;23;20412;-81
2023/09/09 13:07:19;;;;;;;6.90;6.10;;;34.50;90.30;;;;;;6173827;23;20404;-82
2023/09/09 13:10:01;;;;;;;7.93;5.93;;;34.20;90.60;;;;;;6159466;23;20416;-80
2023/09/09 13:13:02;;;;;;;8.03;5.70;;;35.00;90.10;;;;;;6162120;23;20485;-79
2023/09/09 13:19:16;;;;;;;6.77;5.57;;;35.50;89.10;;;;;;6143167;23;20435;-79
2023/09/09 13:22:04;;;;;;;7.30;6.00;;;35.80;88.80;;;;;;6157314;23;20397;-81
2023/09/09 13:25:22;;;;;;;7.83;5.53;;;36.20;87.40;;;;;;6157140;23;20440;-79
2023/09/09 13:28:09;;;;;;;6.63;5.40;;;36.20;87.10;;;;;;6152218;23;20416;-81
2023/09/09 13:34:26;;;;;;;11.90;5.90;;;35.20;86.30;;;;;;6110480;22;20481;-80
2023/09/09 13:37:16;;;;;;;8.73;5.63;;;35.70;86.90;;;;;;6144374;23;20448;-81
2023/09/09 13:40:06;;;;;;;6.60;6.00;;;36.00;87.30;;;;;;6157619;23;20467;-81
2023/09/09 13:43:04;;;;;;;10.53;5.90;;;36.10;86.90;;;;;;6156969;23;20491;-80
2023/09/09 13:45:57;;;;;;;7.13;6.20;;;36.70;84.00;;;;;;6155609;23;20419;-81
2023/09/09 13:51:58;;;;;;;6.90;6.30;;;36.60;83.00;;;;;;6159095;23;20416;-79
2023/09/09 13:54:39;;;;;;;7.50;5.87;;;36.20;83.80;;;;;;6129695;23;20424;-79
2023/09/09 13:57:49;;;;;;;6.77;6.23;;;36.00;84.90;;;;;;6159742;23;20762;-81
2023/09/09 14:00:35;;;;;;;7.10;6.37;;;35.90;85.00;;;;;;6152653;23;20446;-80
2023/09/09 14:03:19;;;;;;;6.90;6.30;;;35.10;85.80;;;;;;6154786;23;20438;-80
2023/09/09 14:05:56;;;;;;;6.83;6.23;;;33.90;88.10;;;;;;6155295;23;20412;-82
2023/09/09 14:12:34;;;;;;;;;;;;;;;;;;;;;
2023/09/09 14:15:49;;;;;;;9.40;6.40;;;34.80;87.70;;;;;;6071080;23;20425;-81
2023/09/09 14:24:24;;;;;;;6.80;6.23;;;34.90;87.60;;;;;;6166301;23;20420;-80
2023/09/09 14:27:25;;;;;;;6.37;5.90;;;35.30;86.50;;;;;;6163403;23;20420;-80
2023/09/09 14:30:10;;;;;;;8.30;7.50;;;35.20;86.70;;;;;;6149080;23;20461;-81
2023/09/09 14:39:10;;;;;;;6.90;6.20;;;35.00;88.10;;;;;;6168647;23;20448;-79
2023/09/09 14:41:54;;;;;;;7.13;6.53;;;35.10;88.60;;;;;;6165751;23;20433;-81
2023/09/09 14:44:44;;;;;;;8.50;6.30;;;34.30;89.60;;;;;;6166416;22;20419;-80
2023/09/09 14:50:30;;;;;;;9.20;6.83;;;35.90;86.80;;;;;;6130953;23;20412;-79
2023/09/09 14:53:10;;;;;;;7.13;6.43;;;35.40;88.40;;;;;;6167257;23;20395;-79
2023/09/09 14:55:59;;;;;;;6.67;6.03;;;35.30;88.10;;;;;;6168774;23;20389;-82
2023/09/09 14:58:34;;;;;;;6.93;6.37;;;35.50;87.60;;;;;;6165108;23;20388;-80
2023/09/09 15:01:22;;;;;;;7.40;6.83;;;35.10;88.60;;;;;;6140490;23;20411;-80
2023/09/09 15:04:06;;;;;;;7.13;6.30;;;35.00;87.70;;;;;;6161439;23;20432;-81
2023/09/09 15:06:56;;;;;;;10.60;9.07;;;34.10;89.40;;;;;;6162773;23;20419;-81
2023/09/09 15:12:42;;;;;;;6.70;6.20;;;33.70;91.20;;;;;;6162630;23;20408;-79
2023/09/09 15:15:37;;;;;;;;;;;;;;;;;;;;;
2023/09/09 15:18:19;;;;;;;8.13;6.00;;;34.90;90.00;;;;;;6161859;23;20404;-81
2023/09/09 15:21:10;;;;;;;7.63;6.37;;;35.10;90.00;;;;;;6136490;23;20435;-81
2023/09/09 15:27:37;;;;;;;7.53;6.93;;;34.50;89.80;;;;;;6167563;23;20780;-82
2023/09/09 15:30:39;;;;;;;7.77;6.97;;;34.50;90.10;;;;;;6167938;23;20420;-81
2023/09/09 15:33:39;;;;;;;7.10;6.40;;;34.00;90.30;;;;;;6138814;23;20440;-81
2023/09/09 15:36:30;;;;;;;7.20;6.50;;;34.40;90.10;;;;;;6144135;23;20418;-81
2023/09/09 15:39:10;;;;;;;6.83;6.23;;;34.50;90.30;;;;;;6165022;22;20511;-79
2023/09/09 15:45:23;;;;;;;8.83;8.03;;;34.90;89.30;;;;;;6156256;23;20483;-83
2023/09/09 15:54:29;;;;;;;7.37;6.10;;;34.70;89.70;;;;;;6134509;23;20443;-80
2023/09/09 15:57:26;;;;;;;;;;;;;;;;;;;;;
2023/09/09 16:06:17;;;;;;;9.40;6.73;;;34.60;89.30;;;;;;6177025;22;20428;-81
2023/09/09 16:12:16;;;;;;;7.00;6.33;;;33.50;90.10;;;;;;6156108;22;20466;-78
2023/09/09 16:15:09;;;;;;;8.33;7.20;;;33.90;90.00;;;;;;6161955;23;20424;-81
2023/09/09 16:17:37;;;;;;;7.50;6.80;;;33.20;90.20;;;;;;6162093;23;20499;-82
2023/09/09 16:23:16;;;;;;;7.60;6.20;;;33.00;90.60;;;;;;6153720;23;20403;-80
2023/09/09 16:25:57;;;;;;;7.13;6.10;;;32.40;91.00;;;;;;6162697;23;20976;-82
2023/09/09 16:31:21;;;;;;;7.83;6.60;;;33.00;90.70;;;;;;6158571;23;20399;-80
2023/09/09 16:34:16;;;;;;;8.37;6.70;;;32.90;90.70;;;;;;6162752;23;20497;-81
2023/09/09 16:39:50;;;;;;;6.97;6.27;;;32.10;91.10;;;;;;6163686;22;20499;-80
2023/09/09 16:42:48;;;;;;;8.43;6.50;;;32.20;91.50;;;;;;6164368;23;20412;-81
2023/09/09 16:45:38;;;;;;;7.40;6.00;;;32.30;91.10;;;;;;6167764;23;20444;-80
2023/09/09 16:48:31;;;;;;;7.37;6.67;;;31.90;91.60;;;;;;6167148;23;20416;-81
2023/09/09 16:51:15;;;;;;;6.87;6.20;;;31.70;91.80;;;;;;6169351;23;20407;-81
2023/09/09 16:54:10;;;;;;;6.87;6.27;;;31.60;91.90;;;;;;6165305;23;20424;-81
2023/09/09 16:57:23;;;;;;;6.63;6.03;;;31.70;91.80;;;;;;6168580;23;20407;-81
2023/09/09 17:00:10;;;;;;;10.73;6.20;;;31.60;92.00;;;;;;6169276;23;20546;-81
2023/09/09 17:02:57;;;;;;;6.67;5.90;;;31.40;92.30;;;;;;6139967;23;20408;-79
2023/09/09 17:05:28;;;;;;;11.87;6.40;;;31.40;92.40;;;;;;6169510;23;20474;-81
2023/09/09 17:08:05;;;;;;;9.80;5.80;;;31.10;92.70;;;;;;6170141;23;20404;-82
2023/09/09 17:10:59;;;;;;;8.07;6.10;;;30.90;93.20;;;;;;6169956;23;20412;-83
2023/09/09 17:13:36;;;;;;;9.17;6.90;;;31.00;93.40;;;;;;6169203;23;20397;-84
2023/09/09 17:16:24;;;;;;;8.03;7.00;;;31.00;93.50;;;;;;6170662;23;20384;-82
2023/09/09 17:18:57;;;;;;;9.53;7.47;;;30.90;93.60;;;;;;6170850;23;20496;-83
2023/09/09 17:24:43;;;;;;;7.40;6.57;;;30.70;94.10;;;;;;6170967;23;20424;-81
2023/09/09 17:30:15;;;;;;;;;;;;;;;;;;;;;
2023/09/09 17:32:54;;;;;;;;;;;;;;;;;;;;;
2023/09/09 17:35:49;;;;;;;10.73;7.23;;;30.20;95.00;;;;;;6165252;23;20412;-81
2023/09/09 17:49:20;;;;;;;9.63;7.50;;;29.80;96.40;;;;;;6215531;23;20498;-81
2023/09/09 17:52:21;;;;;;;8.27;7.40;;;29.60;96.80;;;;;;6156538;23;20408;-81
2023/09/09 17:54:59;;;;;;;9.00;7.97;;;29.50;97.40;;;;;;6153267;23;20459;-80
2023/09/09 17:58:20;;;;;;;10.43;8.53;;;29.30;97.80;;;;;;6156430;23;20412;-80
2023/09/09 18:01:03;;;;;;;11.47;9.03;;;29.20;98.20;;;;;;6155091;23;20450;-83
2023/09/09 18:03:47;;;;;;;9.17;7.80;;;29.10;98.50;;;;;;6163533;22;20436;-81
2023/09/09 18:06:26;;;;;;;8.87;8.07;;;28.90;99.00;;;;;;6161978;23;20404;-80
2023/09/09 18:09:16;;;;;;;9.67;8.70;;;28.80;99.20;;;;;;6163382;23;20423;-80
2023/09/09 18:11:53;;;;;;;10.53;8.40;;;28.80;99.60;;;;;;6161800;23;20415;-83